createdAt,value
2019-04-26T00:00:57.911Z,1.53
2019-04-26T00:03:34.303Z,1.67
2019-04-26T00:06:06.309Z,1.67
2019-04-26T00:08:36.409Z,1.30
2019-04-26T00:11:31.413Z,1.50
2019-04-26T00:14:24.834Z,1.40
2019-04-26T00:17:02.653Z,1.40
2019-04-26T00:19:32.911Z,1.80
2019-04-26T00:22:03.068Z,1.70
2019-04-26T00:24:33.324Z,2.20
2019-04-26T00:27:03.352Z,1.90
2019-04-26T00:29:33.276Z,1.73
2019-04-26T00:32:04.774Z,2.10
2019-04-26T00:34:35.044Z,2.03
2019-04-26T00:37:04.934Z,2.57
2019-04-26T00:39:35.969Z,2.80
2019-04-26T00:42:05.913Z,2.20
2019-04-26T00:44:36.493Z,2.00
2019-04-26T00:47:07.714Z,2.17
2019-04-26T00:49:43.744Z,1.90
2019-04-26T00:52:10.891Z,2.03
2019-04-26T00:54:41.947Z,2.47
2019-04-26T00:57:12.376Z,2.30
2019-04-26T00:59:42.970Z,2.70
2019-04-26T01:02:20.699Z,2.47
2019-04-26T01:04:50.767Z,2.50
2019-04-26T01:07:21.198Z,2.27
2019-04-26T01:09:51.138Z,2.20
2019-04-26T01:12:21.922Z,2.23
2019-04-26T01:14:51.965Z,2.53
2019-04-26T01:17:22.413Z,2.63
2019-04-26T01:19:54.929Z,2.10
2019-04-26T01:22:27.834Z,2.93
2019-04-26T01:25:00.163Z,2.90
2019-04-26T01:27:31.832Z,2.70
2019-04-26T01:30:05.288Z,2.80
2019-04-26T01:32:38.177Z,2.80
2019-04-26T01:35:08.529Z,2.50
2019-04-26T01:37:41.678Z,2.73
2019-04-26T01:40:17.153Z,2.90
2019-04-26T01:43:10.228Z,2.70
2019-04-26T01:45:50.575Z,3.07
2019-04-26T01:48:45.275Z,2.70
2019-04-26T01:51:27.345Z,2.70
2019-04-26T01:53:57.515Z,2.50
2019-04-26T01:56:32.652Z,2.53
2019-04-26T01:59:02.733Z,2.67
2019-04-26T02:01:47.993Z,2.40
2019-04-26T02:04:18.070Z,2.60
2019-04-26T02:06:47.971Z,2.20
2019-04-26T02:09:18.149Z,3.07
2019-04-26T02:11:48.159Z,2.67
2019-04-26T02:14:18.112Z,3.00
2019-04-26T02:16:48.348Z,3.13
2019-04-26T02:19:18.537Z,2.70
2019-04-26T02:21:55.584Z,2.70
2019-04-26T02:24:38.180Z,3.07
2019-04-26T02:27:18.333Z,3.20
2019-04-26T02:29:48.920Z,2.80
2019-04-26T02:32:19.179Z,2.67
2019-04-26T02:34:49.693Z,3.40
2019-04-26T02:37:20.079Z,3.07
2019-04-26T02:39:51.102Z,3.63
2019-04-26T02:42:52.155Z,3.13
2019-04-26T02:46:08.694Z,3.63
2019-04-26T02:49:32.989Z,3.77
2019-04-26T02:52:16.213Z,3.13
2019-04-26T02:54:55.781Z,3.40
2019-04-26T02:57:48.221Z,4.00
2019-04-26T03:00:20.480Z,3.90
2019-04-26T03:02:59.319Z,3.67
2019-04-26T03:05:33.587Z,3.67
2019-04-26T03:08:09.381Z,4.20
2019-04-26T03:10:43.971Z,3.97
2019-04-26T03:13:34.293Z,3.23
2019-04-26T03:16:29.344Z,4.10
2019-04-26T03:19:17.158Z,3.50
2019-04-26T03:22:00.477Z,3.80
2019-04-26T03:24:42.888Z,4.17
2019-04-26T03:27:27.110Z,4.17
2019-04-26T03:30:23.449Z,4.23
2019-04-26T03:33:34.027Z,3.50
2019-04-26T03:36:26.129Z,3.60
2019-04-26T03:39:15.396Z,4.30
2019-04-26T03:42:05.624Z,3.40
2019-04-26T03:44:44.839Z,3.57
2019-04-26T03:47:19.166Z,3.27
2019-04-26T03:50:15.505Z,3.80
2019-04-26T03:53:35.549Z,3.77
2019-04-26T03:57:08.627Z,3.70
2019-04-26T04:00:22.087Z,3.83
2019-04-26T04:03:37.493Z,3.90
2019-04-26T04:06:11.279Z,3.80
2019-04-26T04:08:50.068Z,4.47
2019-04-26T04:11:24.290Z,3.60
2019-04-26T04:14:00.391Z,3.57
2019-04-26T04:17:09.478Z,4.00
2019-04-26T04:20:18.086Z,4.00
2019-04-26T04:22:53.830Z,3.40
2019-04-26T04:25:31.351Z,3.63
2019-04-26T04:28:26.198Z,3.80
2019-04-26T04:31:16.290Z,3.70
2019-04-26T04:33:52.716Z,4.13
2019-04-26T04:36:33.296Z,4.00
2019-04-26T04:39:14.189Z,3.50
2019-04-26T04:42:05.229Z,3.63
2019-04-26T04:45:06.434Z,3.27
2019-04-26T04:47:52.529Z,3.53
2019-04-26T04:50:38.632Z,3.30
2019-04-26T04:53:38.267Z,3.60
2019-04-26T04:56:29.675Z,3.73
2019-04-26T04:59:03.201Z,4.27
2019-04-26T05:02:30.522Z,3.80
2019-04-26T05:05:29.180Z,3.60
2019-04-26T05:08:24.640Z,3.47
2019-04-26T05:11:04.582Z,4.33
2019-04-26T05:13:45.209Z,3.77
2019-04-26T05:16:45.536Z,4.07
2019-04-26T05:19:46.870Z,4.00
2019-04-26T05:22:41.370Z,4.00
2019-04-26T05:25:48.023Z,4.53
2019-04-26T05:28:51.729Z,3.77
2019-04-26T05:31:33.307Z,4.37
2019-04-26T05:34:39.368Z,4.83
2019-04-26T05:38:18.389Z,4.23
2019-04-26T05:40:58.229Z,4.20
2019-04-26T05:44:06.124Z,4.43
2019-04-26T05:47:23.303Z,5.03
2019-04-26T05:50:44.040Z,4.97
2019-04-26T05:54:04.083Z,5.13
2019-04-26T05:56:54.348Z,5.17
2019-04-26T05:59:48.732Z,4.80
2019-04-26T06:03:13.988Z,4.30
2019-04-26T06:06:25.231Z,5.00
2019-04-26T06:09:37.216Z,5.27
2019-04-26T06:12:18.884Z,5.20
2019-04-26T06:15:23.251Z,6.03
2019-04-26T06:18:20.212Z,6.00
2019-04-26T06:21:14.384Z,4.60
2019-04-26T06:24:19.277Z,4.20
2019-04-26T06:27:22.626Z,4.93
2019-04-26T06:30:06.404Z,5.37
2019-04-26T06:33:05.563Z,5.53
2019-04-26T06:35:37.548Z,6.00
2019-04-26T06:39:04.302Z,6.03
2019-04-26T06:42:21.958Z,5.20
2019-04-26T06:45:46.758Z,6.70
2019-04-26T06:48:40.628Z,6.17
2019-04-26T06:51:24.703Z,4.27
2019-04-26T06:54:20.727Z,4.53
2019-04-26T06:57:18.472Z,3.70
2019-04-26T07:00:10.781Z,3.90
2019-04-26T07:03:13.794Z,3.57
2019-04-26T07:05:47.832Z,3.80
2019-04-26T07:09:02.184Z,3.97
2019-04-26T07:12:51.318Z,4.20
2019-04-26T07:15:42.247Z,4.37
2019-04-26T07:18:35.931Z,3.93
2019-04-26T07:21:17.992Z,4.50
2019-04-26T07:24:31.218Z,4.67
2019-04-26T07:27:17.906Z,4.60
2019-04-26T07:30:25.101Z,4.73
2019-04-26T07:33:34.174Z,4.23
2019-04-26T07:36:50.667Z,3.77
2019-04-26T07:39:55.510Z,3.33
2019-04-26T07:42:59.083Z,3.23
2019-04-26T07:45:53.651Z,3.50
2019-04-26T07:48:55.263Z,3.67
2019-04-26T07:52:15.338Z,3.30
2019-04-26T07:55:14.492Z,3.37
2019-04-26T07:58:27.766Z,3.33
2019-04-26T08:01:09.948Z,3.20
2019-04-26T08:03:52.592Z,3.57
2019-04-26T08:06:43.028Z,3.00
2019-04-26T08:09:26.433Z,3.27
2019-04-26T08:11:51.694Z,3.10
2019-04-26T08:14:36.580Z,2.90
2019-04-26T08:17:40.270Z,3.20
2019-04-26T08:20:28.204Z,3.27
2019-04-26T08:23:02.659Z,2.80
2019-04-26T08:25:34.652Z,2.40
2019-04-26T08:28:08.426Z,2.50
2019-04-26T08:30:44.884Z,2.20
2019-04-26T08:33:18.201Z,1.90
2019-04-26T08:35:53.230Z,2.40
2019-04-26T08:38:23.415Z,2.37
2019-04-26T08:40:54.032Z,2.30
2019-04-26T08:43:50.040Z,2.73
2019-04-26T08:46:43.329Z,2.47
2019-04-26T08:49:54.827Z,2.30
2019-04-26T08:52:29.650Z,2.80
2019-04-26T08:55:02.484Z,2.43
2019-04-26T08:57:36.756Z,2.50
2019-04-26T09:00:15.360Z,2.67
2019-04-26T09:03:11.750Z,3.00
2019-04-26T09:06:01.096Z,2.80
2019-04-26T09:08:39.206Z,2.77
2019-04-26T09:11:09.451Z,3.20
2019-04-26T09:13:42.705Z,3.17
2019-04-26T09:16:15.201Z,2.67
2019-04-26T09:18:52.447Z,3.20
2019-04-26T09:21:20.278Z,3.10
2019-04-26T09:24:25.153Z,3.00
2019-04-26T09:27:08.564Z,3.00
2019-04-26T09:30:06.134Z,3.00
2019-04-26T09:32:58.309Z,3.33
2019-04-26T09:35:27.334Z,3.50
2019-04-26T09:37:57.395Z,3.10
2019-04-26T09:40:27.645Z,3.20
2019-04-26T09:43:22.571Z,3.33
2019-04-26T09:46:15.753Z,3.87
2019-04-26T09:48:51.993Z,3.30
2019-04-26T09:51:21.938Z,3.60
2019-04-26T09:53:52.397Z,3.30
2019-04-26T09:56:22.155Z,4.43
2019-04-26T09:58:52.161Z,4.93
2019-04-26T10:01:24.135Z,3.90
2019-04-26T10:03:54.064Z,4.10
2019-04-26T10:06:26.067Z,4.67
2019-04-26T10:08:57.161Z,5.27
2019-04-26T10:11:31.606Z,5.83
2019-04-26T10:14:12.097Z,4.80
2019-04-26T10:16:48.693Z,4.20
2019-04-26T10:19:48.629Z,4.70
2019-04-26T10:22:18.627Z,5.90
2019-04-26T10:24:49.684Z,5.27
2019-04-26T10:27:19.633Z,4.80
2019-04-26T10:29:49.631Z,6.40
2019-04-26T10:32:21.873Z,5.80
2019-04-26T10:34:53.449Z,6.97
2019-04-26T10:37:23.850Z,6.97
2019-04-26T10:39:53.964Z,5.40
2019-04-26T10:42:25.119Z,5.77
2019-04-26T10:44:55.948Z,5.10
2019-04-26T10:47:26.094Z,5.10
2019-04-26T10:49:58.165Z,4.37
2019-04-26T10:52:37.407Z,5.13
2019-04-26T10:55:27.216Z,5.00
2019-04-26T10:58:04.800Z,4.20
2019-04-26T11:00:38.505Z,4.93
2019-04-26T11:03:08.584Z,4.47
2019-04-26T11:08:28.092Z,3.77
2019-04-26T11:10:58.359Z,3.60
2019-04-26T11:13:28.440Z,3.27
2019-04-26T11:15:58.399Z,3.43
2019-04-26T11:18:28.667Z,3.70
2019-04-26T11:20:58.713Z,3.60
2019-04-26T11:23:28.782Z,4.43
2019-04-26T11:26:02.901Z,3.63
2019-04-26T11:28:33.044Z,4.43
2019-04-26T11:31:04.440Z,3.90
2019-04-26T11:33:44.404Z,3.67
2019-04-26T11:36:07.349Z,3.97
2019-04-26T11:38:38.587Z,3.77
2019-04-26T11:41:08.701Z,3.87
2019-04-26T11:43:38.666Z,3.83
2019-04-26T11:46:08.718Z,3.47
2019-04-26T11:48:39.132Z,3.67
2019-04-26T11:51:09.140Z,3.50
2019-04-26T11:53:40.527Z,4.03
2019-04-26T11:56:10.822Z,3.87
2019-04-26T11:58:40.687Z,4.00
2019-04-26T12:01:12.183Z,3.70
2019-04-26T12:03:46.856Z,3.50
2019-04-26T12:06:38.490Z,3.63
2019-04-26T12:09:16.893Z,3.13
2019-04-26T12:11:50.871Z,3.87
2019-04-26T12:14:20.536Z,3.67
2019-04-26T12:16:55.011Z,3.17
2019-04-26T12:19:22.752Z,4.17
2019-04-26T12:21:52.617Z,4.30
2019-04-26T12:24:25.320Z,4.60
2019-04-26T12:29:25.962Z,4.03
2019-04-26T12:29:53.564Z,3.60
2019-04-26T12:31:55.990Z,3.80
2019-04-26T12:34:25.847Z,3.70
2019-04-26T12:36:56.188Z,3.60
2019-04-26T12:39:26.128Z,3.73
2019-04-26T12:41:56.216Z,4.10
2019-04-26T12:44:32.121Z,3.93
2019-04-26T12:47:11.150Z,4.00
2019-04-26T12:49:41.127Z,3.80
2019-04-26T12:52:11.065Z,3.50
2019-04-26T12:54:43.124Z,3.20
2019-04-26T12:57:16.289Z,3.90
2019-04-26T12:59:46.041Z,3.57
2019-04-26T13:02:16.587Z,3.73
2019-04-26T13:04:47.588Z,4.60
2019-04-26T13:07:23.878Z,3.73
2019-04-26T13:10:09.569Z,4.03
2019-04-26T13:13:01.811Z,3.50
2019-04-26T13:16:01.968Z,3.63
2019-04-26T13:18:31.962Z,3.40
2019-04-26T13:21:03.099Z,4.20
2019-04-26T13:23:33.619Z,3.60
2019-04-26T13:26:03.563Z,3.80
2019-04-26T13:28:33.543Z,3.30
2019-04-26T13:31:03.476Z,3.03
2019-04-26T13:33:33.457Z,3.40
2019-04-26T13:36:04.715Z,3.33
2019-04-26T13:38:39.393Z,3.77
2019-04-26T13:41:07.660Z,3.33
2019-04-26T13:43:37.605Z,3.17
2019-04-26T13:46:24.432Z,3.37
2019-04-26T13:49:07.196Z,2.90
2019-04-26T13:51:37.289Z,3.80
2019-04-26T13:54:07.253Z,3.37
2019-04-26T13:56:37.592Z,3.23
2019-04-26T13:59:07.755Z,3.50
2019-04-26T14:01:37.919Z,2.77
2019-04-26T14:04:08.981Z,2.67
2019-04-26T14:06:40.782Z,2.57
2019-04-26T14:09:13.065Z,2.40
2019-04-26T14:11:43.164Z,2.60
2019-04-26T14:14:13.549Z,2.63
2019-04-26T14:16:44.069Z,2.20
2019-04-26T14:19:15.537Z,2.80
2019-04-26T14:21:45.820Z,2.57
2019-04-26T14:24:46.854Z,2.73
2019-04-26T14:27:20.600Z,2.47
2019-04-26T14:29:50.565Z,2.20
2019-04-26T14:32:22.894Z,2.53
2019-04-26T14:34:53.430Z,2.43
2019-04-26T14:37:24.506Z,2.40
2019-04-26T14:39:55.288Z,2.60
2019-04-26T14:42:35.206Z,2.43
2019-04-26T14:44:58.018Z,2.03
2019-04-26T14:47:30.493Z,2.57
2019-04-26T14:49:59.519Z,2.20
2019-04-26T14:52:32.460Z,2.50
2019-04-26T14:55:02.436Z,2.70
2019-04-26T14:57:33.934Z,2.20
2019-04-26T15:00:05.078Z,2.90
2019-04-26T15:02:50.252Z,2.03
2019-04-26T15:05:27.577Z,2.33
2019-04-26T15:07:57.574Z,2.87
2019-04-26T15:10:45.910Z,2.73
2019-04-26T15:13:17.023Z,2.67
2019-04-26T15:15:39.949Z,2.60
2019-04-26T15:18:09.897Z,2.40
2019-04-26T15:20:40.265Z,2.37
2019-04-26T15:23:10.228Z,2.70
2019-04-26T15:25:41.324Z,3.03
2019-04-26T15:28:14.585Z,2.83
2019-04-26T15:30:46.913Z,3.80
2019-04-26T15:33:15.639Z,3.50
2019-04-26T15:35:46.641Z,3.80
2019-04-26T15:38:16.896Z,2.93
2019-04-26T15:41:24.034Z,3.20
2019-04-26T15:44:13.603Z,3.70
2019-04-26T15:46:55.598Z,3.70
2019-04-26T15:49:43.254Z,3.03
2019-04-26T15:52:13.211Z,2.80
2019-04-26T15:54:43.203Z,2.70
2019-04-26T15:57:13.213Z,3.07
2019-04-26T15:59:43.408Z,2.90
2019-04-26T16:02:13.597Z,2.80
2019-04-26T16:04:47.355Z,3.13
2019-04-26T16:07:27.007Z,3.30
2019-04-26T16:09:49.365Z,3.10
2019-04-26T16:12:20.311Z,3.03
2019-04-26T16:14:51.995Z,3.30
2019-04-26T16:17:21.985Z,3.07
2019-04-26T16:19:52.353Z,3.60
2019-04-26T16:22:25.902Z,3.37
2019-04-26T16:24:54.009Z,2.87
2019-04-26T16:27:24.618Z,3.33
2019-04-26T16:30:17.764Z,2.60
2019-04-26T16:33:07.609Z,2.77
2019-04-26T16:35:37.619Z,3.17
2019-04-26T16:38:26.313Z,3.43
2019-04-26T16:40:56.282Z,3.30
2019-04-26T16:43:36.663Z,3.20
2019-04-26T16:45:57.956Z,3.07
2019-04-26T16:48:27.943Z,3.60
2019-04-26T16:51:00.888Z,3.00
2019-04-26T16:53:46.322Z,2.97
2019-04-26T16:56:03.705Z,2.50
2019-04-26T16:58:38.296Z,2.97
2019-04-26T17:01:10.128Z,2.70
2019-04-26T17:03:43.947Z,3.40
2019-04-26T17:06:14.114Z,3.30
2019-04-26T17:08:49.125Z,2.80
2019-04-26T17:11:14.451Z,2.23
2019-04-26T17:13:50.569Z,2.20
2019-04-26T17:16:16.019Z,2.00
2019-04-26T17:18:45.902Z,2.10
2019-04-26T17:21:21.628Z,2.23
2019-04-26T17:24:09.774Z,2.20
2019-04-26T17:26:44.020Z,1.80
2019-04-26T17:29:13.974Z,2.07
2019-04-26T17:31:44.293Z,1.70
2019-04-26T17:34:14.241Z,2.63
2019-04-26T17:36:46.337Z,2.10
2019-04-26T17:39:17.240Z,1.70
2019-04-26T17:41:50.608Z,2.00
2019-04-26T17:44:26.083Z,2.40
2019-04-26T17:46:56.302Z,1.90
2019-04-26T17:49:27.383Z,2.57
2019-04-26T17:51:58.073Z,2.00
2019-04-26T17:54:43.853Z,2.70
2019-04-26T17:56:59.485Z,2.40
2019-04-26T17:59:33.895Z,2.23
2019-04-26T18:02:01.467Z,2.10
2019-04-26T18:04:36.893Z,2.40
2019-04-26T18:07:22.344Z,2.37
2019-04-26T18:09:44.726Z,2.40
2019-04-26T18:12:07.936Z,2.50
2019-04-26T18:14:38.479Z,2.57
2019-04-26T18:17:20.485Z,2.23
2019-04-26T18:20:00.708Z,2.50
2019-04-26T18:22:45.027Z,2.60
2019-04-26T18:25:15.084Z,2.50
2019-04-26T18:27:45.035Z,2.23
2019-04-26T18:30:15.514Z,2.60
2019-04-26T18:32:47.696Z,2.17
2019-04-26T18:35:17.298Z,2.30
2019-04-26T18:37:47.236Z,2.20
2019-04-26T18:40:17.255Z,2.87
2019-04-26T18:42:47.516Z,2.17
2019-04-26T18:45:25.629Z,2.40
2019-04-26T18:47:49.528Z,2.37
2019-04-26T18:50:19.535Z,2.43
2019-04-26T18:53:05.826Z,2.43
2019-04-26T18:55:36.103Z,2.50
2019-04-26T18:58:06.007Z,2.63
2019-04-26T19:00:38.345Z,2.70
2019-04-26T19:03:09.734Z,3.23
2019-04-26T19:05:39.766Z,2.80
2019-04-26T19:08:10.418Z,3.63
2019-04-26T19:10:40.470Z,4.40
2019-04-26T19:13:36.799Z,4.27
2019-04-26T19:16:23.753Z,5.37
2019-04-26T19:19:23.118Z,5.37
2019-04-26T19:21:54.797Z,6.30
2019-04-26T19:24:24.668Z,5.37
2019-04-26T19:26:54.649Z,4.50
2019-04-26T19:29:32.656Z,4.23
2019-04-26T19:32:01.416Z,4.00
2019-04-26T19:34:30.140Z,3.67
2019-04-26T19:37:01.624Z,4.33
2019-04-26T19:39:35.529Z,3.90
2019-04-26T19:42:06.260Z,3.77
2019-04-26T19:44:36.375Z,3.90
2019-04-26T19:47:28.351Z,3.60
2019-04-26T19:50:25.905Z,3.57
2019-04-26T19:53:03.038Z,3.37
2019-04-26T19:55:41.903Z,3.27
2019-04-26T19:58:20.084Z,3.00
2019-04-26T20:00:47.012Z,2.90
2019-04-26T20:03:17.104Z,2.67
2019-04-26T20:05:48.480Z,2.87
2019-04-26T20:08:18.686Z,2.80
2019-04-26T20:10:49.011Z,2.50
2019-04-26T20:13:19.295Z,2.50
2019-04-26T20:15:52.806Z,2.73
2019-04-26T20:18:21.455Z,2.30
2019-04-26T20:20:52.140Z,1.90
2019-04-26T20:23:22.927Z,2.50
2019-04-26T20:25:53.126Z,3.33
2019-04-26T20:28:23.702Z,3.33
2019-04-26T20:31:12.963Z,3.97
2019-04-26T20:33:42.925Z,4.30
2019-04-26T20:36:13.158Z,3.77
2019-04-26T20:38:47.296Z,3.73
2019-04-26T20:41:15.098Z,2.87
2019-04-26T20:43:52.387Z,2.70
2019-04-26T20:46:17.754Z,2.70
2019-04-26T20:48:48.053Z,2.93
2019-04-26T20:51:18.539Z,3.23
2019-04-26T20:53:49.236Z,3.67
2019-04-26T20:56:19.097Z,3.03
2019-04-26T20:58:49.621Z,3.33
2019-04-26T21:01:19.640Z,3.20
2019-04-26T21:03:51.615Z,3.57
2019-04-26T21:06:22.409Z,3.60
2019-04-26T21:08:54.153Z,3.53
2019-04-26T21:11:25.324Z,3.60
2019-04-26T21:13:55.084Z,4.40
2019-04-26T21:16:25.335Z,3.93
2019-04-26T21:18:55.606Z,3.87
2019-04-26T21:21:25.536Z,3.80
2019-04-26T21:23:55.472Z,4.17
2019-04-26T21:26:46.628Z,4.13
2019-04-26T21:29:35.430Z,4.10
2019-04-26T21:32:16.285Z,4.20
2019-04-26T21:34:50.761Z,4.20
2019-04-26T21:37:29.150Z,4.33
2019-04-26T21:40:26.118Z,3.87
2019-04-26T21:42:59.652Z,4.60
2019-04-26T21:45:30.948Z,4.73
2019-04-26T21:48:02.654Z,3.90
2019-04-26T21:50:35.797Z,4.30
2019-04-26T21:53:06.895Z,4.03
2019-04-26T21:55:38.721Z,3.60
2019-04-26T21:58:07.273Z,4.10
2019-04-26T22:01:03.408Z,3.60
2019-04-26T22:03:34.915Z,4.07
2019-04-26T22:06:05.075Z,3.90
2019-04-26T22:08:37.804Z,3.53
2019-04-26T22:11:07.972Z,3.90
2019-04-26T22:13:45.647Z,3.30
2019-04-26T22:16:31.977Z,3.20
2019-04-26T22:19:04.427Z,3.90
2019-04-26T22:21:52.732Z,3.63
2019-04-26T22:24:29.677Z,3.30
2019-04-26T22:26:59.628Z,3.60
2019-04-26T22:29:29.520Z,3.87
2019-04-26T22:31:59.775Z,3.70
2019-04-26T22:34:29.861Z,3.80
2019-04-26T22:37:01.772Z,4.70
2019-04-26T22:39:39.412Z,4.03
2019-04-26T22:42:03.905Z,3.50
2019-04-26T22:44:43.494Z,3.90
2019-04-26T22:47:33.892Z,4.10
2019-04-26T22:50:03.428Z,3.80
2019-04-26T22:52:33.758Z,4.07
2019-04-26T22:55:06.153Z,3.67
2019-04-26T22:57:35.922Z,3.57
2019-04-26T23:00:07.170Z,3.83
2019-04-26T23:02:38.646Z,3.97
2019-04-26T23:05:08.700Z,4.13
2019-04-26T23:07:38.920Z,3.93
2019-04-26T23:10:10.790Z,3.60
2019-04-26T23:12:53.989Z,3.47
2019-04-26T23:15:43.282Z,3.60
2019-04-26T23:18:30.254Z,4.10
2019-04-26T23:21:07.810Z,3.60
2019-04-26T23:23:40.946Z,3.60
2019-04-26T23:26:10.163Z,3.50
2019-04-26T23:28:40.113Z,3.27
2019-04-26T23:31:10.045Z,3.57
2019-04-26T23:33:40.004Z,3.27
2019-04-26T23:36:09.867Z,3.23
2019-04-26T23:38:39.885Z,3.37
2019-04-26T23:41:09.815Z,3.73
2019-04-26T23:43:39.698Z,3.17
2019-04-26T23:46:09.563Z,3.43
2019-04-26T23:48:42.727Z,3.20
2019-04-26T23:51:12.185Z,3.57
2019-04-26T23:53:42.859Z,3.97
2019-04-26T23:56:16.244Z,4.23
2019-04-26T23:58:45.745Z,4.70
